createdAt,value
2018-02-19T00:00:57.662Z,15.07
2018-02-19T00:03:25.238Z,14.47
2018-02-19T00:05:52.740Z,12.45
2018-02-19T00:08:20.493Z,14.35
2018-02-19T00:10:48.778Z,12.90
2018-02-19T00:13:16.356Z,14.70
2018-02-19T00:15:43.892Z,16.50
2018-02-19T00:18:12.187Z,14.98
2018-02-19T00:20:39.696Z,17.08
2018-02-19T00:23:07.226Z,17.23
2018-02-19T00:25:34.712Z,21.45
2018-02-19T00:28:03.064Z,12.00
2018-02-19T00:30:30.597Z,15.65
2018-02-19T00:32:58.102Z,14.15
2018-02-19T00:35:26.238Z,19.02
2018-02-19T00:37:53.759Z,15.63
2018-02-19T00:40:21.264Z,17.37
2018-02-19T00:42:49.542Z,16.90
2018-02-19T00:45:17.034Z,14.30
2018-02-19T00:47:44.528Z,19.90
2018-02-19T00:50:12.037Z,16.62
2018-02-19T00:52:39.585Z,12.80
2018-02-19T00:55:07.082Z,15.32
2018-02-19T00:57:35.360Z,17.42
2018-02-19T01:00:03.859Z,17.75
2018-02-19T01:02:31.352Z,19.23
2018-02-19T01:04:58.971Z,15.00
2018-02-19T01:07:27.266Z,12.80
2018-02-19T01:09:54.918Z,14.65
2018-02-19T01:12:23.190Z,15.48
2018-02-19T01:14:51.461Z,18.58
2018-02-19T01:17:18.950Z,13.18
2018-02-19T01:19:47.228Z,19.17
2018-02-19T01:22:15.503Z,11.07
2018-02-19T01:24:44.266Z,15.68
2018-02-19T01:27:11.993Z,11.85
2018-02-19T01:29:39.530Z,11.88
2018-02-19T01:32:07.038Z,12.93
2018-02-19T01:34:34.601Z,14.80
2018-02-19T01:37:02.104Z,17.70
2018-02-19T01:39:29.621Z,10.38
2018-02-19T01:41:57.139Z,17.33
2018-02-19T01:44:25.420Z,18.08
2018-02-19T01:46:53.712Z,14.40
2018-02-19T01:49:22.005Z,15.68
2018-02-19T01:51:49.867Z,11.32
2018-02-19T01:54:18.143Z,10.27
2018-02-19T01:56:46.410Z,13.77
2018-02-19T01:59:13.963Z,12.05
2018-02-19T02:01:42.238Z,11.63
2018-02-19T02:04:09.745Z,11.40
2018-02-19T02:06:37.318Z,12.55
2018-02-19T02:09:04.834Z,12.02
2018-02-19T02:11:32.320Z,9.40
2018-02-19T02:14:00.598Z,9.00
2018-02-19T02:16:28.856Z,10.63
2018-02-19T02:18:56.367Z,11.32
2018-02-19T02:21:23.889Z,11.55
2018-02-19T02:23:51.388Z,11.50
2018-02-19T02:26:19.154Z,10.80
2018-02-19T02:28:46.668Z,11.88
2018-02-19T02:31:14.169Z,9.65
2018-02-19T02:33:42.457Z,17.05
2018-02-19T02:36:10.738Z,12.68
2018-02-19T02:38:39.000Z,11.55
2018-02-19T02:41:07.271Z,11.25
2018-02-19T02:43:35.587Z,12.65
2018-02-19T02:46:03.137Z,13.32
2018-02-19T02:48:31.413Z,10.80
2018-02-19T02:50:59.683Z,13.35
2018-02-19T02:53:27.977Z,16.80
2018-02-19T02:55:56.255Z,14.18
2018-02-19T02:58:24.514Z,9.73
2018-02-19T03:00:52.075Z,9.18
2018-02-19T03:03:19.650Z,12.02
2018-02-19T03:05:47.242Z,12.85
2018-02-19T03:08:15.500Z,11.43
2018-02-19T03:10:43.381Z,18.60
2018-02-19T03:13:11.683Z,11.75
2018-02-19T03:15:39.173Z,12.15
2018-02-19T03:18:06.676Z,12.60
2018-02-19T03:20:34.167Z,10.50
2018-02-19T03:23:01.681Z,10.20
2018-02-19T03:25:29.161Z,12.85
2018-02-19T03:27:56.705Z,13.90
2018-02-19T03:30:24.229Z,12.50
2018-02-19T03:32:51.815Z,8.70
2018-02-19T03:35:19.301Z,12.27
2018-02-19T03:37:46.833Z,11.63
2018-02-19T03:40:14.321Z,17.35
2018-02-19T03:42:41.877Z,13.13
2018-02-19T03:45:09.394Z,21.02
2018-02-19T03:47:37.679Z,9.48
2018-02-19T03:50:05.958Z,15.82
2018-02-19T03:52:34.222Z,13.20
2018-02-19T03:55:02.509Z,11.60
2018-02-19T03:57:30.811Z,11.32
2018-02-19T03:59:58.349Z,11.85
2018-02-19T04:02:26.617Z,13.15
2018-02-19T04:04:54.869Z,9.60
2018-02-19T04:07:22.390Z,12.90
2018-02-19T04:09:50.659Z,17.27
2018-02-19T04:12:18.932Z,13.07
2018-02-19T04:14:47.197Z,13.02
2018-02-19T04:17:14.704Z,10.98
2018-02-19T04:19:42.233Z,17.90
2018-02-19T04:22:09.742Z,15.07
2018-02-19T04:24:37.241Z,18.35
2018-02-19T04:27:04.753Z,16.17
2018-02-19T04:29:32.261Z,11.65
2018-02-19T04:31:59.768Z,20.67
2018-02-19T04:34:28.032Z,19.42
2018-02-19T04:36:55.538Z,17.77
2018-02-19T04:39:23.021Z,16.55
2018-02-19T04:41:50.534Z,16.05
2018-02-19T04:44:19.337Z,14.57
2018-02-19T04:46:47.599Z,14.02
2018-02-19T04:49:15.094Z,15.30
2018-02-19T04:51:42.585Z,11.98
2018-02-19T04:54:10.096Z,15.15
2018-02-19T04:56:38.359Z,21.65
2018-02-19T04:59:05.877Z,19.10
2018-02-19T05:01:33.402Z,15.25
2018-02-19T05:04:01.684Z,17.58
2018-02-19T05:06:29.961Z,11.93
2018-02-19T05:08:57.448Z,17.77
2018-02-19T05:11:25.725Z,17.55
2018-02-19T05:13:53.326Z,14.93
2018-02-19T05:16:20.817Z,19.12
2018-02-19T05:18:48.334Z,18.30
2018-02-19T05:21:15.828Z,13.95
2018-02-19T05:23:44.239Z,15.15
2018-02-19T05:26:11.721Z,20.65
2018-02-19T05:28:39.231Z,16.33
2018-02-19T05:31:06.750Z,15.23
2018-02-19T05:33:35.015Z,20.83
2018-02-19T05:36:03.326Z,15.05
2018-02-19T05:38:30.821Z,24.77
2018-02-19T05:40:58.344Z,25.98
2018-02-19T05:43:25.864Z,21.85
2018-02-19T05:45:53.393Z,26.33
2018-02-19T05:48:20.882Z,20.85
2018-02-19T05:50:49.067Z,17.12
2018-02-19T05:53:16.546Z,28.42
2018-02-19T05:55:44.816Z,19.70
2018-02-19T05:58:13.064Z,28.67
2018-02-19T06:00:40.560Z,20.55
2018-02-19T06:03:08.057Z,29.02
2018-02-19T06:05:35.575Z,32.22
2018-02-19T06:08:03.085Z,26.83
2018-02-19T06:10:30.591Z,19.77
2018-02-19T06:12:58.131Z,21.75
2018-02-19T06:15:25.636Z,22.60
2018-02-19T06:17:53.133Z,32.97
2018-02-19T06:20:21.416Z,21.33
2018-02-19T06:22:49.689Z,20.95
2018-02-19T06:25:17.944Z,35.85
2018-02-19T06:27:45.445Z,22.33
2018-02-19T06:30:12.940Z,29.20
2018-02-19T06:32:40.503Z,18.65
2018-02-19T06:35:08.207Z,24.37
2018-02-19T06:37:35.697Z,26.70
2018-02-19T06:40:03.968Z,26.37
2018-02-19T06:42:32.249Z,24.30
2018-02-19T06:45:00.979Z,31.67
2018-02-19T06:47:28.530Z,33.20
2018-02-19T06:49:56.048Z,26.50
2018-02-19T06:52:24.410Z,26.37
2018-02-19T06:54:51.924Z,29.05
2018-02-19T06:57:20.261Z,23.87
2018-02-19T06:59:48.278Z,24.65
2018-02-19T07:02:16.570Z,24.20
2018-02-19T07:04:44.071Z,29.63
2018-02-19T07:07:11.596Z,30.33
2018-02-19T07:09:39.112Z,23.95
2018-02-19T07:12:06.647Z,32.00
2018-02-19T07:14:34.181Z,28.25
2018-02-19T07:17:01.699Z,26.58
2018-02-19T07:19:29.191Z,34.63
2018-02-19T07:21:57.469Z,26.60
2018-02-19T07:24:25.747Z,26.92
2018-02-19T07:26:54.017Z,30.75
2018-02-19T07:29:21.529Z,26.67
2018-02-19T07:31:49.037Z,26.55
2018-02-19T07:34:16.549Z,29.73
2018-02-19T07:36:44.304Z,27.62
2018-02-19T07:39:11.914Z,33.08
2018-02-19T07:41:39.433Z,34.40
2018-02-19T07:44:07.019Z,32.72
2018-02-19T07:46:34.536Z,51.50
2018-02-19T07:49:02.140Z,31.58
2018-02-19T07:51:29.637Z,27.17
2018-02-19T07:53:57.254Z,29.65
2018-02-19T07:56:24.860Z,31.87
2018-02-19T07:58:52.394Z,29.77
2018-02-19T08:01:19.926Z,29.00
2018-02-19T08:03:48.754Z,32.40
2018-02-19T08:06:16.257Z,27.00
2018-02-19T08:08:44.072Z,26.95
2018-02-19T08:11:11.582Z,22.85
2018-02-19T08:13:39.102Z,24.35
2018-02-19T08:16:06.635Z,31.37
2018-02-19T08:18:34.930Z,32.70
2018-02-19T08:21:03.716Z,30.30
2018-02-19T08:23:32.036Z,34.20
2018-02-19T08:25:59.583Z,30.65
2018-02-19T08:28:27.493Z,27.62
2018-02-19T08:30:55.666Z,21.25
2018-02-19T08:33:23.476Z,28.27
2018-02-19T08:35:51.980Z,20.50
2018-02-19T08:38:20.245Z,25.50
2018-02-19T08:40:49.292Z,27.58
2018-02-19T08:43:16.806Z,22.30
2018-02-19T08:45:45.611Z,20.85
2018-02-19T08:48:13.170Z,26.48
2018-02-19T08:50:41.440Z,43.10
2018-02-19T08:53:08.949Z,29.25
2018-02-19T08:55:37.388Z,37.90
2018-02-19T08:58:04.933Z,30.93
2018-02-19T09:00:33.275Z,27.08
2018-02-19T09:03:00.810Z,24.27
2018-02-19T09:05:29.135Z,39.33
2018-02-19T09:07:56.632Z,28.03
2018-02-19T09:10:24.259Z,30.00
2018-02-19T09:12:51.820Z,25.07
2018-02-19T09:15:19.384Z,27.50
2018-02-19T09:17:46.919Z,29.30
2018-02-19T09:20:15.226Z,26.97
2018-02-19T09:22:42.802Z,27.60
2018-02-19T09:25:10.331Z,26.00
2018-02-19T09:27:38.614Z,25.43
2018-02-19T09:30:06.934Z,27.43
2018-02-19T09:32:34.500Z,33.33
2018-02-19T09:35:02.019Z,28.03
2018-02-19T09:37:29.568Z,26.63
2018-02-19T09:39:57.081Z,24.93
2018-02-19T09:42:24.590Z,23.63
2018-02-19T09:44:52.101Z,29.20
2018-02-19T09:47:19.599Z,28.10
2018-02-19T09:49:47.100Z,24.03
2018-02-19T09:52:15.358Z,34.87
2018-02-19T09:54:42.890Z,25.20
2018-02-19T09:57:11.065Z,39.63
2018-02-19T09:59:38.628Z,31.90
2018-02-19T10:02:06.141Z,28.20
2018-02-19T10:04:34.430Z,34.43
2018-02-19T10:07:02.709Z,31.63
2018-02-19T10:09:30.980Z,28.93
2018-02-19T10:11:59.245Z,27.20
2018-02-19T10:14:26.810Z,35.77
2018-02-19T10:16:54.300Z,34.80
2018-02-19T10:19:22.653Z,25.20
2018-02-19T10:21:50.154Z,28.60
2018-02-19T10:24:18.456Z,24.37
2018-02-19T10:26:45.973Z,29.13
2018-02-19T10:29:14.245Z,33.67
2018-02-19T10:31:41.750Z,30.90
2018-02-19T10:34:09.308Z,24.50
2018-02-19T10:36:37.827Z,25.47
2018-02-19T10:39:05.345Z,32.53
2018-02-19T10:41:32.863Z,35.87
2018-02-19T10:44:00.391Z,25.00
2018-02-19T10:46:27.953Z,26.37
2018-02-19T10:48:55.449Z,29.90
2018-02-19T10:51:22.944Z,29.53
2018-02-19T10:53:50.472Z,28.90
2018-02-19T10:56:19.593Z,29.33
2018-02-19T10:58:47.099Z,23.50
2018-02-19T11:01:15.391Z,31.93
2018-02-19T11:03:42.903Z,31.60
2018-02-19T11:06:10.424Z,26.93
2018-02-19T11:08:37.924Z,31.23
2018-02-19T11:11:05.420Z,33.50
2018-02-19T11:13:34.276Z,23.43
2018-02-19T11:16:01.779Z,24.83
2018-02-19T11:18:30.077Z,27.30
2018-02-19T11:20:58.390Z,24.53
2018-02-19T11:23:25.989Z,24.00
2018-02-19T11:25:53.505Z,27.53
2018-02-19T11:28:21.004Z,25.37
2018-02-19T11:30:48.521Z,23.20
2018-02-19T11:33:16.052Z,29.20
2018-02-19T11:35:43.576Z,24.47
2018-02-19T11:38:11.098Z,28.03
2018-02-19T11:40:39.437Z,28.37
2018-02-19T11:43:06.974Z,25.80
2018-02-19T11:45:34.540Z,21.57
2018-02-19T11:48:02.082Z,23.57
2018-02-19T11:50:29.577Z,18.77
2018-02-19T11:52:57.187Z,30.80
2018-02-19T11:55:24.646Z,28.73
2018-02-19T11:57:52.935Z,26.87
2018-02-19T12:00:21.208Z,26.47
2018-02-19T12:02:49.490Z,23.63
2018-02-19T12:05:18.597Z,32.07
2018-02-19T12:07:46.862Z,22.47
2018-02-19T12:10:15.139Z,27.50
2018-02-19T12:12:43.180Z,22.77
2018-02-19T12:15:10.701Z,21.07
2018-02-19T12:17:39.101Z,27.03
2018-02-19T12:20:06.605Z,23.57
2018-02-19T12:22:34.104Z,23.57
2018-02-19T12:25:02.392Z,27.50
2018-02-19T12:27:29.891Z,21.53
2018-02-19T12:29:57.417Z,22.50
2018-02-19T12:32:25.712Z,30.37
2018-02-19T12:34:53.219Z,22.03
2018-02-19T12:37:20.717Z,27.70
2018-02-19T12:39:49.019Z,25.17
2018-02-19T12:42:16.555Z,21.27
2018-02-19T12:44:44.095Z,24.87
2018-02-19T12:47:11.658Z,27.30
2018-02-19T12:49:39.816Z,20.80
2018-02-19T12:52:07.318Z,22.80
2018-02-19T12:54:34.818Z,26.80
2018-02-19T12:57:02.333Z,29.40
2018-02-19T12:59:29.855Z,18.80
2018-02-19T13:01:57.392Z,25.97
2018-02-19T13:04:25.645Z,22.60
2018-02-19T13:06:53.205Z,23.23
2018-02-19T13:09:20.715Z,25.20
2018-02-19T13:11:48.232Z,26.07
2018-02-19T13:14:15.724Z,25.27
2018-02-19T13:16:43.999Z,21.30
2018-02-19T13:19:12.279Z,26.17
2018-02-19T13:21:40.562Z,19.17
2018-02-19T13:24:08.829Z,22.10
2018-02-19T13:26:36.363Z,23.37
2018-02-19T13:29:03.896Z,18.93
2018-02-19T13:31:31.414Z,22.30
2018-02-19T13:33:58.927Z,21.70
2018-02-19T13:36:26.456Z,20.63
2018-02-19T13:38:54.058Z,24.93
2018-02-19T13:41:21.567Z,17.17
2018-02-19T13:43:49.149Z,27.00
2018-02-19T13:46:16.679Z,27.07
2018-02-19T13:48:44.183Z,22.80
2018-02-19T13:51:11.699Z,20.37
2018-02-19T13:53:39.238Z,16.73
2018-02-19T13:56:06.963Z,19.07
2018-02-19T13:58:34.463Z,26.10
2018-02-19T14:01:02.644Z,23.00
2018-02-19T14:03:30.144Z,24.30
2018-02-19T14:05:57.694Z,22.37
2018-02-19T14:08:25.186Z,19.17
2018-02-19T14:10:52.720Z,24.87
2018-02-19T14:13:20.242Z,27.27
2018-02-19T14:15:49.528Z,22.73
2018-02-19T14:18:17.027Z,23.90
2018-02-19T14:20:44.560Z,18.77
2018-02-19T14:23:12.054Z,19.97
2018-02-19T14:25:39.636Z,22.80
2018-02-19T14:28:07.157Z,24.47
2018-02-19T14:30:35.436Z,26.00
2018-02-19T14:33:02.950Z,21.13
2018-02-19T14:35:30.449Z,21.00
2018-02-19T14:37:57.952Z,20.50
2018-02-19T14:40:25.449Z,21.40
2018-02-19T14:42:53.017Z,21.13
2018-02-19T14:45:20.676Z,23.47
2018-02-19T14:47:48.210Z,21.87
2018-02-19T14:50:15.708Z,16.40
2018-02-19T14:52:43.227Z,17.47
2018-02-19T14:55:10.755Z,20.50
2018-02-19T14:57:38.358Z,17.00
2018-02-19T15:00:06.700Z,20.00
2018-02-19T15:02:34.254Z,21.83
2018-02-19T15:05:01.781Z,27.70
2018-02-19T15:07:29.474Z,20.83
2018-02-19T15:09:57.162Z,23.87
2018-02-19T15:12:24.706Z,23.07
2018-02-19T15:14:52.224Z,25.70
2018-02-19T15:17:20.514Z,25.57
2018-02-19T15:19:48.025Z,29.73
2018-02-19T15:22:15.567Z,22.90
2018-02-19T15:24:43.051Z,38.57
2018-02-19T15:27:10.581Z,25.87
2018-02-19T15:29:38.072Z,20.73
2018-02-19T15:32:05.596Z,24.67
2018-02-19T15:34:33.099Z,25.93
2018-02-19T15:37:01.387Z,21.13
2018-02-19T15:39:28.913Z,18.37
2018-02-19T15:41:56.424Z,24.53
2018-02-19T15:44:23.916Z,22.50
2018-02-19T15:46:51.445Z,27.53
2018-02-19T15:49:18.975Z,30.50
2018-02-19T15:51:46.496Z,24.07
2018-02-19T15:54:14.807Z,27.50
2018-02-19T15:56:42.394Z,26.90
2018-02-19T15:59:09.926Z,26.83
2018-02-19T16:01:38.214Z,21.83
2018-02-19T16:04:05.735Z,25.70
2018-02-19T16:06:34.124Z,23.20
2018-02-19T16:09:03.135Z,25.57
2018-02-19T16:11:31.412Z,24.17
2018-02-19T16:13:59.718Z,22.77
2018-02-19T16:16:27.211Z,32.80
2018-02-19T16:18:54.772Z,22.80
2018-02-19T16:21:22.274Z,23.80
2018-02-19T16:23:49.784Z,21.73
2018-02-19T16:26:17.309Z,26.80
2018-02-19T16:28:44.810Z,18.13
2018-02-19T16:31:12.360Z,26.00
2018-02-19T16:33:39.878Z,24.53
2018-02-19T16:36:07.511Z,28.07
2018-02-19T16:38:35.082Z,20.63
2018-02-19T16:41:02.632Z,20.90
2018-02-19T16:43:30.133Z,31.60
2018-02-19T16:45:57.674Z,24.07
2018-02-19T16:48:25.175Z,18.33
2018-02-19T16:50:52.693Z,21.73
2018-02-19T16:53:20.233Z,25.50
2018-02-19T16:55:47.746Z,32.60
2018-02-19T16:58:15.251Z,35.80
2018-02-19T17:00:43.511Z,33.80
2018-02-19T17:03:11.010Z,28.93
2018-02-19T17:05:38.514Z,28.20
2018-02-19T17:08:06.020Z,26.90
2018-02-19T17:10:34.329Z,23.57
2018-02-19T17:13:01.867Z,31.30
2018-02-19T17:15:30.132Z,24.10
2018-02-19T17:17:58.481Z,27.60
2018-02-19T17:20:26.016Z,29.30
2018-02-19T17:22:53.526Z,25.73
2018-02-19T17:25:21.040Z,27.83
2018-02-19T17:27:48.559Z,27.43
2018-02-19T17:30:16.065Z,27.07
2018-02-19T17:32:43.636Z,34.33
2018-02-19T17:35:11.184Z,61.00
2018-02-19T17:37:38.784Z,32.87
2018-02-19T17:40:06.282Z,29.97
2018-02-19T17:42:34.570Z,35.17
2018-02-19T17:45:03.541Z,33.43
2018-02-19T17:47:31.047Z,33.03
2018-02-19T17:49:58.568Z,28.63
2018-02-19T17:52:26.091Z,40.80
2018-02-19T17:54:53.602Z,29.00
2018-02-19T17:57:21.125Z,31.93
2018-02-19T17:59:48.630Z,27.60
2018-02-19T18:02:16.170Z,36.00
2018-02-19T18:04:43.722Z,32.30
2018-02-19T18:07:11.243Z,28.70
2018-02-19T18:09:38.798Z,28.80
2018-02-19T18:12:06.298Z,34.47
2018-02-19T18:14:33.809Z,35.50
2018-02-19T18:17:01.308Z,31.57
2018-02-19T18:19:28.821Z,39.10
2018-02-19T18:21:56.398Z,29.63
2018-02-19T18:24:23.904Z,32.40
2018-02-19T18:26:52.338Z,29.80
2018-02-19T18:29:19.856Z,36.47
2018-02-19T18:31:48.189Z,28.90
2018-02-19T18:34:15.818Z,35.30
2018-02-19T18:36:43.324Z,28.90
2018-02-19T18:39:10.858Z,33.77
2018-02-19T18:41:39.136Z,29.00
2018-02-19T18:44:06.682Z,34.20
2018-02-19T18:46:35.360Z,29.63
2018-02-19T18:49:02.910Z,32.43
2018-02-19T18:51:31.209Z,39.23
2018-02-19T18:53:58.714Z,26.37
2018-02-19T18:56:26.214Z,35.87
2018-02-19T18:58:54.499Z,33.83
2018-02-19T19:01:22.011Z,27.87
2018-02-19T19:03:49.640Z,36.87
2018-02-19T19:09:10.697Z,35.23
2018-02-19T19:11:38.202Z,33.77
2018-02-19T19:14:05.750Z,36.43
2018-02-19T19:16:33.353Z,32.07
2018-02-19T19:19:01.720Z,34.63
2018-02-19T19:21:30.040Z,31.73
2018-02-19T19:23:57.584Z,30.77
2018-02-19T19:26:25.976Z,31.70
2018-02-19T19:28:53.506Z,35.90
2018-02-19T19:31:21.826Z,33.63
2018-02-19T19:33:49.419Z,37.27
2018-02-19T19:36:16.979Z,32.72
2018-02-19T19:38:44.488Z,33.33
2018-02-19T19:41:12.773Z,31.53
2018-02-19T19:43:41.476Z,29.20
2018-02-19T19:46:09.010Z,35.13
2018-02-19T19:48:36.931Z,44.87
2018-02-19T19:51:04.474Z,31.67
2018-02-19T19:53:32.747Z,34.27
2018-02-19T19:56:01.086Z,31.90
2018-02-19T19:58:29.391Z,36.10
2018-02-19T20:00:57.690Z,33.20
2018-02-19T20:03:25.943Z,42.80
2018-02-19T20:05:53.464Z,35.35
2018-02-19T20:08:22.308Z,40.30
2018-02-19T20:10:49.980Z,33.55
2018-02-19T20:13:18.312Z,38.42
2018-02-19T20:15:46.834Z,31.62
2018-02-19T20:18:14.337Z,35.15
2018-02-19T20:20:41.895Z,34.08
2018-02-19T20:23:09.399Z,32.83
2018-02-19T20:25:36.968Z,34.53
2018-02-19T20:28:04.530Z,32.25
2018-02-19T20:30:32.108Z,32.20
2018-02-19T20:32:59.724Z,31.42
2018-02-19T20:35:27.267Z,35.20
2018-02-19T20:37:55.651Z,35.35
2018-02-19T20:40:23.124Z,39.42
2018-02-19T20:42:51.539Z,36.97
2018-02-19T20:45:19.074Z,38.22
2018-02-19T20:47:46.610Z,39.83
2018-02-19T20:50:14.153Z,28.77
2018-02-19T20:52:41.692Z,32.08
2018-02-19T20:55:09.283Z,28.08
2018-02-19T20:57:37.078Z,34.45
2018-02-19T21:00:05.442Z,28.40
2018-02-19T21:02:32.975Z,48.55
2018-02-19T21:05:00.552Z,36.60
2018-02-19T21:07:28.124Z,37.75
2018-02-19T21:09:55.650Z,41.78
2018-02-19T21:12:23.197Z,35.10
2018-02-19T21:14:51.561Z,32.97
2018-02-19T21:17:19.068Z,32.72
2018-02-19T21:19:46.687Z,29.10
2018-02-19T21:22:14.245Z,41.03
2018-02-19T21:24:42.535Z,33.55
2018-02-19T21:27:10.848Z,39.80
2018-02-19T21:29:38.364Z,33.47
2018-02-19T21:32:06.678Z,30.48
2018-02-19T21:34:35.299Z,34.20
2018-02-19T21:37:02.807Z,35.85
2018-02-19T21:39:30.304Z,27.98
2018-02-19T21:41:57.838Z,35.22
2018-02-19T21:44:25.379Z,34.00
2018-02-19T21:46:53.108Z,31.42
2018-02-19T21:49:20.615Z,30.95
2018-02-19T21:51:48.145Z,37.53
2018-02-19T21:54:15.774Z,37.05
2018-02-19T21:56:44.222Z,38.15
2018-02-19T21:59:11.722Z,34.70
2018-02-19T22:01:40.494Z,34.42
2018-02-19T22:04:08.019Z,41.92
2018-02-19T22:06:35.546Z,38.17
2018-02-19T22:09:03.826Z,41.78
2018-02-19T22:11:32.147Z,36.85
2018-02-19T22:13:59.673Z,42.67
2018-02-19T22:16:27.997Z,40.10
2018-02-19T22:18:55.575Z,34.72
2018-02-19T22:21:23.129Z,38.03
2018-02-19T22:23:50.681Z,36.38
2018-02-19T22:26:18.273Z,34.80
2018-02-19T22:28:45.780Z,36.47
2018-02-19T22:31:14.097Z,38.67
2018-02-19T22:33:41.630Z,45.83
2018-02-19T22:36:09.914Z,40.92
2018-02-19T22:38:38.193Z,31.65
2018-02-19T22:41:06.493Z,37.35
2018-02-19T22:43:34.075Z,38.30
2018-02-19T22:46:01.586Z,35.05
2018-02-19T22:48:29.890Z,34.80
2018-02-19T22:50:58.204Z,32.63
2018-02-19T22:53:25.736Z,54.30
2018-02-19T22:55:54.018Z,52.55
2018-02-19T22:58:22.293Z,41.00
2018-02-19T23:00:49.845Z,28.25
2018-02-19T23:03:18.145Z,46.17
2018-02-19T23:05:45.676Z,39.60
2018-02-19T23:08:13.234Z,46.15
2018-02-19T23:10:40.790Z,42.05
2018-02-19T23:13:08.314Z,40.83
2018-02-19T23:15:35.813Z,47.08
2018-02-19T23:18:03.322Z,42.38
2018-02-19T23:20:31.585Z,40.58
2018-02-19T23:23:00.263Z,36.70
2018-02-19T23:25:27.793Z,44.67
2018-02-19T23:27:55.310Z,52.53
2018-02-19T23:30:23.586Z,45.42
2018-02-19T23:32:51.899Z,45.22
2018-02-19T23:35:19.401Z,39.28
2018-02-19T23:37:46.949Z,47.08
2018-02-19T23:40:14.576Z,38.40
2018-02-19T23:42:42.106Z,38.72
2018-02-19T23:45:09.674Z,44.00
2018-02-19T23:47:37.217Z,43.55
2018-02-19T23:50:04.786Z,45.17
2018-02-19T23:52:32.337Z,40.90
2018-02-19T23:54:59.878Z,32.47
2018-02-19T23:57:27.432Z,38.13
2018-02-19T23:59:55.216Z,39.20
